地図

経路データ

SID SEASON NUMBER BASIN SUBBASIN NAME ISO_TIME NATURE LAT LON WMO_WIND WMO_PRES WMO_AGENCY TRACK_TYPE DIST2LAND LANDFALL IFLAG USA_AGENCY USA_ATCF_ID USA_LAT USA_LON USA_RECORD USA_STATUS USA_WIND USA_PRES USA_SSHS USA_R34_NE USA_R34_SE USA_R34_SW USA_R34_NW USA_R50_NE USA_R50_SE USA_R50_SW USA_R50_NW USA_R64_NE USA_R64_SE USA_R64_SW USA_R64_NW USA_POCI USA_ROCI USA_RMW USA_EYE TOKYO_LAT TOKYO_LON TOKYO_GRADE TOKYO_WIND TOKYO_PRES TOKYO_R50_DIR TOKYO_R50_LONG TOKYO_R50_SHORT TOKYO_R30_DIR TOKYO_R30_LONG TOKYO_R30_SHORT TOKYO_LAND CMA_LAT CMA_LON CMA_CAT CMA_WIND CMA_PRES HKO_LAT HKO_LON HKO_CAT HKO_WIND HKO_PRES NEWDELHI_LAT NEWDELHI_LON NEWDELHI_GRADE NEWDELHI_WIND NEWDELHI_PRES NEWDELHI_CI NEWDELHI_DP NEWDELHI_POCI REUNION_LAT REUNION_LON REUNION_TYPE REUNION_WIND REUNION_PRES REUNION_TNUM REUNION_CI REUNION_RMW REUNION_R34_NE REUNION_R34_SE REUNION_R34_SW REUNION_R34_NW REUNION_R50_NE REUNION_R50_SE REUNION_R50_SW REUNION_R50_NW REUNION_R64_NE REUNION_R64_SE REUNION_R64_SW REUNION_R64_NW BOM_LAT BOM_LON BOM_TYPE BOM_WIND BOM_PRES BOM_TNUM BOM_CI BOM_RMW BOM_R34_NE BOM_R34_SE BOM_R34_SW BOM_R34_NW BOM_R50_NE BOM_R50_SE BOM_R50_SW BOM_R50_NW BOM_R64_NE BOM_R64_SE BOM_R64_SW BOM_R64_NW BOM_ROCI BOM_POCI BOM_EYE BOM_POS_METHOD BOM_PRES_METHOD NADI_LAT NADI_LON NADI_CAT NADI_WIND NADI_PRES WELLINGTON_LAT WELLINGTON_LON WELLINGTON_WIND WELLINGTON_PRES DS824_LAT DS824_LON DS824_STAGE DS824_WIND DS824_PRES TD9636_LAT TD9636_LON TD9636_STAGE TD9636_WIND TD9636_PRES TD9635_LAT TD9635_LON TD9635_WIND TD9635_PRES TD9635_ROCI NEUMANN_LAT NEUMANN_LON NEUMANN_CLASS NEUMANN_WIND NEUMANN_PRES MLC_LAT MLC_LON MLC_CLASS MLC_WIND MLC_PRES USA_GUST BOM_GUST BOM_GUST_PER REUNION_GUST REUNION_GUST_PER USA_SEAHGT USA_SEARAD_NE USA_SEARAD_SE USA_SEARAD_SW USA_SEARAD_NW STORM_SPEED STORM_DIR
1938261N18154 1938 49 WP MM NOT_NAMED 1938-09-17 21:00:00 NR 18.2000 154.400 main 2346 2335 __________O___ -1 18.2000 154.400 4 4 269
1938261N18154 1938 49 WP MM NOT_NAMED 1938-09-18 00:00:00 NR 18.1953 154.178 main 2335 2323 __________P___ -1 18.1953 154.178 4 4 270
1938261N18154 1938 49 WP MM NOT_NAMED 1938-09-18 03:00:00 NR 18.2024 153.945 main 2318 2306 __________P___ -1 18.2024 153.945 4 5 275
1938261N18154 1938 49 WP MM NOT_NAMED 1938-09-18 06:00:00 NR 18.2334 153.689 main 2306 2280 __________P___ -1 18.2334 153.689 4 5 281
1938261N18154 1938 49 WP MM NOT_NAMED 1938-09-18 09:00:00 NR 18.3000 153.400 main 2280 2254 __________O___ -1 18.3000 153.400 4 6 287
1938261N18154 1938 49 WP MM NOT_NAMED 1938-09-18 12:00:00 NR 18.4101 153.071 main 2254 2223 __________P___ -1 18.4101 153.071 4 7 291
1938261N18154 1938 49 WP MM NOT_NAMED 1938-09-18 15:00:00 NR 18.5552 152.715 main 2213 2188 __________P___ -1 18.5552 152.715 4 8 295
1938261N18154 1938 49 WP MM NOT_NAMED 1938-09-18 18:00:00 NR 18.7226 152.352 main 2188 2147 __________P___ -1 18.7226 152.352 4 8 297
1938261N18154 1938 49 WP MM NOT_NAMED 1938-09-18 21:00:00 NR 18.9000 152.000 main 2147 2112 __________O___ -1 18.9000 152.000 4 7 300
1938261N18154 1938 49 WP MM NOT_NAMED 1938-09-19 00:00:00 NR 19.0754 151.706 main 2112 2086 __________P___ -1 19.0754 151.706 4 7 303
1938261N18154 1938 49 WP MM NOT_NAMED 1938-09-19 03:00:00 NR 19.2567 151.422 main 2076 2051 __________P___ -1 19.2567 151.422 4 7 303
1938261N18154 1938 49 WP MM NOT_NAMED 1938-09-19 06:00:00 NR 19.4347 151.128 main 2051 2016 __________P___ -1 19.4347 151.128 4 7 300
1938261N18154 1938 49 WP MM NOT_NAMED 1938-09-19 09:00:00 NR 19.6000 150.800 main 2016 1985 __________O___ -1 19.6000 150.800 4 8 292
1938261N18154 1938 49 WP MM NOT_NAMED 1938-09-19 12:00:00 NR 19.7238 150.362 main 1985 1950 __________P___ -1 19.7238 150.362 4 9 286
1938261N18154 1938 49 WP MM NOT_NAMED 1938-09-19 15:00:00 NR 19.8360 149.897 main 1950 1921 __________P___ -1 19.8360 149.897 4 9 285
1938261N18154 1938 49 WP MM NOT_NAMED 1938-09-19 18:00:00 NR 19.9551 149.459 main 1911 1882 __________P___ -1 19.9551 149.459 4 8 289
1938261N18154 1938 49 WP MM NOT_NAMED 1938-09-19 21:00:00 NR 20.1000 149.100 main 1882 1853 __________O___ -1 20.1000 149.100 4 6 304
1938261N18154 1938 49 WP MM NOT_NAMED 1938-09-20 00:00:00 NR 20.2913 148.925 main 1853 1828 __________P___ -1 20.2913 148.925 4 5 328
1938261N18154 1938 49 WP MM NOT_NAMED 1938-09-20 03:00:00 NR 20.5113 148.826 main 1828 1803 __________P___ -1 20.5113 148.826 4 5 339
1938261N18154 1938 49 WP MM NOT_NAMED 1938-09-20 06:00:00 NR 20.7507 148.740 main 1793 1769 __________P___ -1 20.7507 148.740 4 5 336
1938261N18154 1938 49 WP MM NOT_NAMED 1938-09-20 09:00:00 NR 21.0000 148.600 main 1769 1735 __________O___ -1 21.0000 148.600 4 7 321
1938261N18154 1938 49 WP MM NOT_NAMED 1938-09-20 12:00:00 NR 21.2554 148.303 main 1725 1691 __________P___ -1 21.2554 148.303 4 8 310
1938261N18154 1938 49 WP MM NOT_NAMED 1938-09-20 15:00:00 NR 21.5156 147.946 main 1686 1643 __________P___ -1 21.5156 147.946 4 9 307
1938261N18154 1938 49 WP MM NOT_NAMED 1938-09-20 18:00:00 NR 21.7679 147.566 main 1643 1605 __________P___ -1 21.7679 147.566 4 8 305
1938261N18154 1938 49 WP MM NOT_NAMED 1938-09-20 21:00:00 NR 22.0000 147.200 main 1605 1572 __________O___ -1 22.0000 147.200 4 8 306
1938261N18154 1938 49 WP MM NOT_NAMED 1938-09-21 00:00:00 NR 22.2083 146.911 main 1572 1543 __________P___ -1 22.2083 146.911 4 7 307
1938261N18154 1938 49 WP MM NOT_NAMED 1938-09-21 03:00:00 NR 22.3944 146.642 main 1539 1521 __________P___ -1 22.3944 146.642 4 6 305
1938261N18154 1938 49 WP MM NOT_NAMED 1938-09-21 06:00:00 NR 22.5583 146.377 main 1510 1488 __________P___ -1 22.5583 146.377 4 6 301
1938261N18154 1938 49 WP MM NOT_NAMED 1938-09-21 09:00:00 NR 22.7000 146.100 main 1488 1466 __________O___ -1 22.7000 146.100 4 6 295
1938261N18154 1938 49 WP MM NOT_NAMED 1938-09-21 12:00:00 NR 22.8178 145.761 main 1466 1441 __________P___ -1 22.8178 145.761 4 7 289
1938261N18154 1938 49 WP MM NOT_NAMED 1938-09-21 15:00:00 NR 22.9154 145.412 main 1441 1420 __________P___ -1 22.9154 145.412 4 7 287
1938261N18154 1938 49 WP MM NOT_NAMED 1938-09-21 18:00:00 NR 23.0053 145.083 main 1420 1399 __________P___ -1 23.0053 145.083 4 6 288
1938261N18154 1938 49 WP MM NOT_NAMED 1938-09-21 21:00:00 NR 23.1000 144.800 main 1399 1386 __________O___ -1 23.1000 144.800 4 4 298
1938261N18154 1938 49 WP MM NOT_NAMED 1938-09-22 00:00:00 NR 23.1786 144.731 main 1386 1375 __________P___ -1 23.1786 144.731 4 2 330
1938261N18154 1938 49 WP MM NOT_NAMED 1938-09-22 03:00:00 NR 23.2705 144.691 main 1375 1361 __________P___ -1 23.2705 144.691 4 3 324
1938261N18154 1938 49 WP MM NOT_NAMED 1938-09-22 06:00:00 NR 23.4023 144.555 main 1361 1327 __________P___ -1 23.4023 144.555 4 6 306
1938261N18154 1938 49 WP MM NOT_NAMED 1938-09-22 09:00:00 NR 23.6000 144.200 main 1327 1273 __________O___ -1 23.6000 144.200 4 12 294
1938261N18154 1938 49 WP MM NOT_NAMED 1938-09-22 12:00:00 NR 23.8877 143.373 main 1273 1210 __________P___ -1 23.8877 143.373 4 18 290
1938261N18154 1938 49 WP MM NOT_NAMED 1938-09-22 15:00:00 NR 24.2347 142.331 main 1205 1117 __________P___ -1 24.2347 142.331 4 21 291
1938261N18154 1938 49 WP MM NOT_NAMED 1938-09-22 18:00:00 NR 24.6131 141.248 main 1113 1033 __________P___ -1 24.6131 141.248 4 20 293
1938261N18154 1938 49 WP MM NOT_NAMED 1938-09-22 21:00:00 NR 25.0000 140.300 main 1033 979 __________O___ -1 25.0000 140.300 4 16 297
1938261N18154 1938 49 WP MM NOT_NAMED 1938-09-23 00:00:00 NR 25.3237 139.700 main 979 933 __________P___ -1 25.3237 139.700 4 11 305
1938261N18154 1938 49 WP MM NOT_NAMED 1938-09-23 03:00:00 NR 25.6635 139.264 main 923 881 __________P___ -1 25.6635 139.264 4 10 317
1938261N18154 1938 49 WP MM NOT_NAMED 1938-09-23 06:00:00 NR 26.0467 138.947 main 878 818 __________P___ -1 26.0467 138.947 4 10 329
1938261N18154 1938 49 WP MM NOT_NAMED 1938-09-23 09:00:00 NR 26.5000 138.700 main 818 745 __________O___ -1 26.5000 138.700 4 11 335
1938261N18154 1938 49 WP MM NOT_NAMED 1938-09-23 12:00:00 NR 27.0851 138.414 main 745 676 __________P___ -1 27.0851 138.414 4 13 340
1938261N18154 1938 49 WP MM NOT_NAMED 1938-09-23 15:00:00 NR 27.7345 138.188 main 676 595 __________P___ -1 27.7345 138.188 4 14 345
1938261N18154 1938 49 WP MM NOT_NAMED 1938-09-23 18:00:00 NR 28.3916 138.018 main 595 529 __________P___ -1 28.3916 138.018 4 13 349
1938261N18154 1938 49 WP MM NOT_NAMED 1938-09-23 21:00:00 NR 29.0000 137.900 main 529 488 __________O___ -1 29.0000 137.900 4 10 336
1938261N18154 1938 49 WP MM NOT_NAMED 1938-09-24 00:00:00 NR 29.2698 137.576 main 488 457 __________P___ -1 29.2698 137.576 4 7 317
1938261N18154 1938 49 WP MM NOT_NAMED 1938-09-24 03:00:00 NR 29.5169 137.338 main 457 415 __________P___ -1 29.5169 137.338 4 7 344
1938261N18154 1938 49 WP MM NOT_NAMED 1938-09-24 06:00:00 NR 29.9305 137.355 main 418 359 __________P___ -1 29.9305 137.355 4 13 19
1938261N18154 1938 49 WP MM NOT_NAMED 1938-09-24 09:00:00 NR 30.7000 137.800 main 355 290 __________O___ -1 30.7000 137.800 4 26 34
1938261N18154 1938 49 WP MM NOT_NAMED 1938-09-24 12:00:00 NR 32.0784 139.014 main 279 148 __________P___ -1 32.0784 139.014 4 40 38
1938261N18154 1938 49 WP MM NOT_NAMED 1938-09-24 15:00:00 NR 33.7961 140.700 main 142 119 __________P___ -1 33.7961 140.700 4 47 40
1938261N18154 1938 49 WP MM NOT_NAMED 1938-09-24 18:00:00 NR 35.6618 142.593 main 153 153 __________P___ -1 35.6618 142.593 4 48 39
1938261N18154 1938 49 WP MM NOT_NAMED 1938-09-24 21:00:00 NR 37.5000 144.400 main 268 268 __________O___ -1 37.5000 144.400 4 42 35
1938261N18154 1938 49 WP MM NOT_NAMED 1938-09-25 00:00:00 NR 39.1197 145.636 main 303 300 __________P___ -1 39.1197 145.636 4 37 29
1938261N18154 1938 49 WP MM NOT_NAMED 1938-09-25 03:00:00 NR 40.7035 146.708 main 290 210 __________P___ -1 40.7035 146.708 4 35 27
1938261N18154 1938 49 WP MM NOT_NAMED 1938-09-25 06:00:00 NR 42.2368 147.724 main 210 159 __________P___ -1 42.2368 147.724 4 34 27
1938261N18154 1938 49 WP MM NOT_NAMED 1938-09-25 09:00:00 NR 43.7000 148.800 main 154 63 __________O___ -1 43.7000 148.800 4 34 31
1938261N18154 1938 49 WP MM NOT_NAMED 1938-09-25 12:00:00 NR 45.1796 150.212 main 59 45 __________P___ -1 45.1796 150.212 4 35 36
1938261N18154 1938 49 WP MM NOT_NAMED 1938-09-25 15:00:00 NR 46.5642 151.714 main 113 113 __________P___ -1 46.5642 151.714 4 33 38
1938261N18154 1938 49 WP MM NOT_NAMED 1938-09-25 18:00:00 NR 47.7906 153.214 main 283 148 __________P___ -1 47.7906 153.214 4 30 41
1938261N18154 1938 49 WP MM NOT_NAMED 1938-09-25 21:00:00 NR 48.8000 154.600 main 145 57 __________O___ -1 48.8000 154.600 4 24 44
1938261N18154 1938 49 WP MM NOT_NAMED 1938-09-26 00:00:00 NR 49.5587 155.775 main 52 43 __________P___ -1 49.5587 155.775 4 19 47
1938261N18154 1938 49 WP MM NOT_NAMED 1938-09-26 03:00:00 NR 50.1168 156.759 main 61 59 __________P___ -1 50.1168 156.759 4 15 50
1938261N18154 1938 49 WP MM NOT_NAMED 1938-09-26 06:00:00 NR 50.5423 157.611 main 77 73 __________P___ -1 50.5423 157.611 4 13 53
1938261N18154 1938 49 WP MM NOT_NAMED 1938-09-26 09:00:00 NR 50.9000 158.400 main 83 __________O___ -1 50.9000 158.400 4 12 54

デジタル台風データ・検索

IBTrACS Databaseについて

本データベースは、米国NOAAが公開する1842年以降の世界の熱帯低気圧のベストトラックデータアーカイブInternational Best Track Archive for Climate Stewardship (IBTrACS)を、ウェブで閲覧しやすい形式に変換したものです。

最終更新日:2021-12-03